createdAt,value
2019-03-22T00:01:59.587Z,10.68
2019-03-22T00:04:26.806Z,15.13
2019-03-22T00:06:54.018Z,10.40
2019-03-22T00:09:21.254Z,14.68
2019-03-22T00:11:48.471Z,12.00
2019-03-22T00:14:15.767Z,12.37
2019-03-22T00:16:42.982Z,10.55
2019-03-22T00:19:10.207Z,9.88
2019-03-22T00:21:37.415Z,9.88
2019-03-22T00:24:04.702Z,6.45
2019-03-22T00:26:32.617Z,13.95
2019-03-22T00:29:00.123Z,13.80
2019-03-22T00:31:27.334Z,12.00
2019-03-22T00:33:54.564Z,12.23
2019-03-22T00:36:21.778Z,12.40
2019-03-22T00:38:49.006Z,10.45
2019-03-22T00:41:16.202Z,8.50
2019-03-22T00:43:43.431Z,13.60
2019-03-22T00:46:10.646Z,11.22
2019-03-22T00:48:37.871Z,9.33
2019-03-22T00:51:05.088Z,10.90
2019-03-22T00:53:32.295Z,22.82
2019-03-22T00:55:59.523Z,11.65
2019-03-22T00:58:26.750Z,10.45
2019-03-22T01:00:53.979Z,10.80
2019-03-22T01:03:21.186Z,8.35
2019-03-22T01:05:48.416Z,13.80
2019-03-22T01:08:15.633Z,14.47
2019-03-22T01:10:42.847Z,9.88
2019-03-22T01:13:10.062Z,10.68
2019-03-22T01:15:37.283Z,9.70
2019-03-22T01:18:04.920Z,10.68
2019-03-22T01:20:32.136Z,9.53
2019-03-22T01:22:59.355Z,9.25
2019-03-22T01:25:26.598Z,14.38
2019-03-22T01:27:53.894Z,21.60
2019-03-22T01:30:21.114Z,9.73
2019-03-22T01:32:48.319Z,7.33
2019-03-22T01:35:15.546Z,11.48
2019-03-22T01:37:42.759Z,12.93
2019-03-22T01:40:11.050Z,10.03
2019-03-22T01:42:38.538Z,13.68
2019-03-22T01:45:10.253Z,16.50
2019-03-22T01:47:37.542Z,18.27
2019-03-22T01:50:06.535Z,10.05
2019-03-22T01:52:33.751Z,11.57
2019-03-22T01:55:00.975Z,16.23
2019-03-22T01:57:28.189Z,8.98
2019-03-22T01:59:55.406Z,10.55
2019-03-22T02:02:22.618Z,9.95
2019-03-22T02:04:49.835Z,14.80
2019-03-22T02:07:17.087Z,14.95
2019-03-22T02:09:44.303Z,13.95
2019-03-22T02:12:11.529Z,8.38
2019-03-22T02:14:38.742Z,9.55
2019-03-22T02:17:06.019Z,14.10
2019-03-22T02:19:33.260Z,9.55
2019-03-22T02:22:00.479Z,13.15
2019-03-22T02:24:27.771Z,12.43
2019-03-22T02:26:55.028Z,18.07
2019-03-22T02:29:22.243Z,13.22
2019-03-22T02:31:49.454Z,15.65
2019-03-22T02:34:16.936Z,7.20
2019-03-22T02:36:44.160Z,12.03
2019-03-22T02:39:11.442Z,11.95
2019-03-22T02:41:38.683Z,12.47
2019-03-22T02:44:05.896Z,15.03
2019-03-22T02:46:33.116Z,8.50
2019-03-22T02:49:00.327Z,8.83
2019-03-22T02:51:27.574Z,8.10
2019-03-22T02:53:54.852Z,12.53
2019-03-22T02:56:22.081Z,9.83
2019-03-22T02:58:49.293Z,10.85
2019-03-22T03:01:16.524Z,10.20
2019-03-22T03:03:43.736Z,14.03
2019-03-22T03:06:10.955Z,13.28
2019-03-22T03:08:38.179Z,12.37
2019-03-22T03:11:05.396Z,9.38
2019-03-22T03:13:32.611Z,16.77
2019-03-22T03:15:59.834Z,8.38
2019-03-22T03:18:27.043Z,7.33
2019-03-22T03:20:54.281Z,14.58
2019-03-22T03:23:21.490Z,12.13
2019-03-22T03:25:48.709Z,13.13
2019-03-22T03:28:15.927Z,8.53
2019-03-22T03:30:43.135Z,11.90
2019-03-22T03:33:10.376Z,15.98
2019-03-22T03:35:37.587Z,10.58
2019-03-22T03:38:04.803Z,14.53
2019-03-22T03:40:32.015Z,8.05
2019-03-22T03:42:59.236Z,10.48
2019-03-22T03:45:28.238Z,14.50
2019-03-22T03:47:55.460Z,11.30
2019-03-22T03:50:22.678Z,12.78
2019-03-22T03:52:49.902Z,7.33
2019-03-22T03:55:17.108Z,13.05
2019-03-22T03:57:44.323Z,8.15
2019-03-22T04:00:11.911Z,9.33
2019-03-22T04:02:39.133Z,10.38
2019-03-22T04:05:06.934Z,9.43
2019-03-22T04:07:34.143Z,9.53
2019-03-22T04:10:01.359Z,12.53
2019-03-22T04:12:28.583Z,10.60
2019-03-22T04:14:55.800Z,15.95
2019-03-22T04:17:23.017Z,10.23
2019-03-22T04:19:50.247Z,13.85
2019-03-22T04:22:17.451Z,12.13
2019-03-22T04:24:44.663Z,8.65
2019-03-22T04:27:11.889Z,10.78
2019-03-22T04:29:39.110Z,9.20
2019-03-22T04:32:06.325Z,10.65
2019-03-22T04:34:33.542Z,17.55
2019-03-22T04:37:00.763Z,9.35
2019-03-22T04:39:27.978Z,11.15
2019-03-22T04:41:55.194Z,14.30
2019-03-22T04:44:22.429Z,13.85
2019-03-22T04:46:49.799Z,9.10
2019-03-22T04:49:17.590Z,8.28
2019-03-22T04:51:45.374Z,11.12
2019-03-22T04:54:13.365Z,16.17
2019-03-22T04:56:41.015Z,10.80
2019-03-22T04:59:18.364Z,12.00
2019-03-22T05:01:39.211Z,9.23
2019-03-22T05:04:07.702Z,7.75
2019-03-22T05:06:35.783Z,18.15
2019-03-22T05:09:04.014Z,14.10
2019-03-22T05:11:31.322Z,9.03
2019-03-22T05:14:00.099Z,7.67
2019-03-22T05:16:28.099Z,23.92
2019-03-22T05:18:56.399Z,13.28
2019-03-22T05:21:25.083Z,10.05
2019-03-22T05:23:53.980Z,14.93
2019-03-22T05:26:22.167Z,13.13
2019-03-22T05:28:50.129Z,9.50
2019-03-22T05:31:21.787Z,13.03
2019-03-22T05:33:49.019Z,7.90
2019-03-22T05:36:16.230Z,8.25
2019-03-22T05:38:43.459Z,15.60
2019-03-22T05:41:10.670Z,10.78
2019-03-22T05:43:37.917Z,11.90
2019-03-22T05:46:05.133Z,6.87
2019-03-22T05:48:32.351Z,9.55
2019-03-22T05:50:59.558Z,11.55
2019-03-22T05:53:26.771Z,11.75
2019-03-22T05:55:54.002Z,18.25
2019-03-22T05:58:21.224Z,16.30
2019-03-22T06:00:48.443Z,13.35
2019-03-22T06:03:15.702Z,10.18
2019-03-22T06:05:42.938Z,10.40
2019-03-22T06:08:10.151Z,10.82
2019-03-22T06:10:37.371Z,12.65
2019-03-22T06:13:04.587Z,9.13
2019-03-22T06:15:31.811Z,16.02
2019-03-22T06:17:59.026Z,15.78
2019-03-22T06:20:26.249Z,9.35
2019-03-22T06:22:53.457Z,19.50
2019-03-22T06:25:20.683Z,11.63
2019-03-22T06:27:47.975Z,11.33
2019-03-22T06:30:15.417Z,8.10
2019-03-22T06:32:42.634Z,14.07
2019-03-22T06:35:09.852Z,12.37
2019-03-22T06:37:37.059Z,15.55
2019-03-22T06:40:05.103Z,10.82
2019-03-22T06:42:32.323Z,11.85
2019-03-22T06:44:59.544Z,10.78
2019-03-22T06:47:26.845Z,12.10
2019-03-22T06:49:54.051Z,7.85
2019-03-22T06:52:21.275Z,12.45
2019-03-22T06:54:48.503Z,11.70
2019-03-22T06:57:15.719Z,9.20
2019-03-22T06:59:42.943Z,13.45
2019-03-22T07:02:10.154Z,10.23
2019-03-22T07:04:37.384Z,13.50
2019-03-22T07:07:04.603Z,19.00
2019-03-22T07:09:31.825Z,14.13
2019-03-22T07:11:59.047Z,11.57
2019-03-22T07:14:26.262Z,21.05
2019-03-22T07:16:53.484Z,12.15
2019-03-22T07:19:20.695Z,15.10
2019-03-22T07:21:48.016Z,13.25
2019-03-22T07:24:15.235Z,12.63
2019-03-22T07:26:42.484Z,14.63
2019-03-22T07:29:09.777Z,16.32
2019-03-22T07:31:36.992Z,11.05
2019-03-22T07:34:04.211Z,12.80
2019-03-22T07:36:31.435Z,12.98
2019-03-22T07:38:58.664Z,18.30
2019-03-22T07:41:25.884Z,10.00
2019-03-22T07:43:53.098Z,16.75
2019-03-22T07:46:20.319Z,21.90
2019-03-22T07:48:47.535Z,12.00
2019-03-22T07:51:14.767Z,11.85
2019-03-22T07:53:41.991Z,11.18
2019-03-22T07:56:09.288Z,9.40
2019-03-22T07:58:36.503Z,10.90
2019-03-22T08:01:03.786Z,19.97
2019-03-22T08:03:31.007Z,16.30
2019-03-22T08:05:58.232Z,24.30
2019-03-22T08:08:25.451Z,14.93
2019-03-22T08:10:52.704Z,23.80
2019-03-22T08:13:19.959Z,16.37
2019-03-22T08:15:47.189Z,25.70
2019-03-22T08:18:14.435Z,21.60
2019-03-22T08:20:42.049Z,13.93
2019-03-22T08:23:10.782Z,11.40
2019-03-22T08:25:38.037Z,15.40
2019-03-22T08:28:05.249Z,18.20
2019-03-22T08:30:42.359Z,15.00
2019-03-22T08:33:01.436Z,14.50
2019-03-22T08:35:28.683Z,17.57
2019-03-22T08:37:55.926Z,13.17
2019-03-22T08:40:23.134Z,24.10
2019-03-22T08:42:50.343Z,13.37
2019-03-22T08:45:17.653Z,16.20
2019-03-22T08:47:44.854Z,19.97
2019-03-22T08:50:12.273Z,19.83
2019-03-22T08:52:39.519Z,19.20
2019-03-22T08:55:06.840Z,20.30
2019-03-22T08:57:34.054Z,27.23
2019-03-22T09:00:01.275Z,26.93
2019-03-22T09:02:28.568Z,18.20
2019-03-22T09:04:55.816Z,21.00
2019-03-22T09:07:24.436Z,23.10
2019-03-22T09:09:51.890Z,27.43
2019-03-22T09:12:19.145Z,18.33
2019-03-22T09:14:46.422Z,18.63
2019-03-22T09:17:13.699Z,24.60
2019-03-22T09:19:40.915Z,19.40
2019-03-22T09:22:08.148Z,23.67
2019-03-22T09:24:39.437Z,17.23
2019-03-22T09:27:04.303Z,18.67
2019-03-22T09:29:31.515Z,19.80
2019-03-22T09:31:58.784Z,18.23
2019-03-22T09:34:33.775Z,26.83
2019-03-22T09:36:54.982Z,33.43
2019-03-22T09:39:22.283Z,26.40
2019-03-22T09:41:49.506Z,16.77
2019-03-22T09:44:16.715Z,22.20
2019-03-22T09:46:44.022Z,25.10
2019-03-22T09:49:11.248Z,22.23
2019-03-22T09:51:38.470Z,25.20
2019-03-22T09:54:05.711Z,21.13
2019-03-22T09:56:45.908Z,28.40
2019-03-22T09:59:01.862Z,27.43
2019-03-22T10:01:29.084Z,23.73
2019-03-22T10:03:56.382Z,26.23
2019-03-22T10:06:23.635Z,21.37
2019-03-22T10:08:50.995Z,26.37
2019-03-22T10:11:18.245Z,32.03
2019-03-22T10:13:48.220Z,24.20
2019-03-22T10:16:14.497Z,23.20
2019-03-22T10:18:41.743Z,20.73
2019-03-22T10:21:17.309Z,23.20
2019-03-22T10:23:37.944Z,28.70
2019-03-22T10:26:05.377Z,28.30
2019-03-22T10:28:32.676Z,20.70
2019-03-22T10:30:59.906Z,24.37
2019-03-22T10:33:27.200Z,19.97
2019-03-22T10:35:54.502Z,30.67
2019-03-22T10:38:31.032Z,24.93
2019-03-22T10:40:50.770Z,24.93
2019-03-22T10:43:18.088Z,17.93
2019-03-22T10:45:45.393Z,29.17
2019-03-22T10:48:12.948Z,32.27
2019-03-22T10:50:40.206Z,24.83
2019-03-22T10:53:07.545Z,35.50
2019-03-22T10:55:35.684Z,24.17
2019-03-22T10:58:02.989Z,23.20
2019-03-22T11:00:30.217Z,21.00
2019-03-22T11:02:57.448Z,21.13
2019-03-22T11:05:24.937Z,28.43
2019-03-22T11:07:52.177Z,22.70
2019-03-22T11:10:19.404Z,22.37
2019-03-22T11:12:46.623Z,23.50
2019-03-22T11:15:13.922Z,25.70
2019-03-22T11:17:41.167Z,24.40
2019-03-22T11:20:13.523Z,22.50
2019-03-22T11:22:40.760Z,23.67
2019-03-22T11:25:08.158Z,23.43
2019-03-22T11:27:35.411Z,26.37
2019-03-22T11:30:03.415Z,38.70
2019-03-22T11:32:30.643Z,24.10
2019-03-22T11:34:57.878Z,24.87
2019-03-22T11:37:25.103Z,22.03
2019-03-22T11:39:52.344Z,35.60
2019-03-22T11:42:19.563Z,26.67
2019-03-22T11:44:46.799Z,23.87
2019-03-22T11:47:14.043Z,24.10
2019-03-22T11:49:41.289Z,23.43
2019-03-22T11:52:08.515Z,24.53
2019-03-22T11:54:35.747Z,23.47
2019-03-22T11:57:02.971Z,20.33
2019-03-22T11:59:30.211Z,20.93
2019-03-22T12:01:57.451Z,20.13
2019-03-22T12:04:24.699Z,25.60
2019-03-22T12:06:51.942Z,17.63
2019-03-22T12:09:19.187Z,15.00
2019-03-22T12:11:46.410Z,21.03
2019-03-22T12:14:13.640Z,17.53
2019-03-22T12:16:40.866Z,17.30
2019-03-22T12:19:08.103Z,25.80
2019-03-22T12:21:39.377Z,22.63
2019-03-22T12:24:06.608Z,22.63
2019-03-22T12:26:33.842Z,22.57
2019-03-22T12:29:01.065Z,21.00
2019-03-22T12:31:28.300Z,28.37
2019-03-22T12:33:55.528Z,22.57
2019-03-22T12:36:22.751Z,21.70
2019-03-22T12:38:49.983Z,19.83
2019-03-22T12:41:17.207Z,15.60
2019-03-22T12:43:44.431Z,25.90
2019-03-22T12:46:11.744Z,21.67
2019-03-22T12:48:38.975Z,26.73
2019-03-22T12:51:06.220Z,23.10
2019-03-22T12:53:33.444Z,20.70
2019-03-22T12:56:00.685Z,22.67
2019-03-22T12:58:27.923Z,28.30
2019-03-22T13:00:55.171Z,25.00
2019-03-22T13:03:24.305Z,21.53
2019-03-22T13:05:51.351Z,23.43
2019-03-22T13:08:18.578Z,20.53
2019-03-22T13:10:45.809Z,28.93
2019-03-22T13:13:13.035Z,20.43
2019-03-22T13:15:40.269Z,16.37
2019-03-22T13:18:07.534Z,18.13
2019-03-22T13:20:34.766Z,25.83
2019-03-22T13:23:01.992Z,21.97
2019-03-22T13:25:29.218Z,18.23
2019-03-22T13:27:56.451Z,23.40
2019-03-22T13:30:28.106Z,26.70
2019-03-22T13:32:55.323Z,25.53
2019-03-22T13:35:22.546Z,20.93
2019-03-22T13:37:49.791Z,18.33
2019-03-22T13:40:17.020Z,23.53
2019-03-22T13:42:44.234Z,19.43
2019-03-22T13:45:11.443Z,19.60
2019-03-22T13:47:38.672Z,16.70
2019-03-22T13:50:06.480Z,16.50
2019-03-22T13:52:33.758Z,17.90
2019-03-22T13:55:00.991Z,14.53
2019-03-22T13:57:28.219Z,17.83
2019-03-22T13:59:55.468Z,15.83
2019-03-22T14:02:23.083Z,25.20
2019-03-22T14:04:50.452Z,19.43
2019-03-22T14:07:17.783Z,23.00
2019-03-22T14:09:44.991Z,18.37
2019-03-22T14:12:12.224Z,16.87
2019-03-22T14:14:39.439Z,24.93
2019-03-22T14:17:06.674Z,17.40
2019-03-22T14:19:33.895Z,17.10
2019-03-22T14:22:01.126Z,13.97
2019-03-22T14:24:28.348Z,25.13
2019-03-22T14:26:55.608Z,15.60
2019-03-22T14:29:22.835Z,19.97
2019-03-22T14:31:50.069Z,16.23
2019-03-22T14:34:17.280Z,19.20
2019-03-22T14:36:44.514Z,16.00
2019-03-22T14:39:13.370Z,16.10
2019-03-22T14:41:40.600Z,19.60
2019-03-22T14:44:07.819Z,17.80
2019-03-22T14:46:35.529Z,16.53
2019-03-22T14:49:03.546Z,17.57
2019-03-22T14:51:31.681Z,21.47
2019-03-22T14:53:59.373Z,16.07
2019-03-22T14:56:27.549Z,13.80
2019-03-22T14:58:55.460Z,13.93
2019-03-22T15:01:23.451Z,13.57
2019-03-22T15:03:51.655Z,17.93
2019-03-22T15:06:19.553Z,16.83
2019-03-22T15:08:48.939Z,16.00
2019-03-22T15:11:16.993Z,14.63
2019-03-22T15:13:55.351Z,22.73
2019-03-22T15:40:31.118Z,14.77
2019-03-22T15:43:09.810Z,22.37
2019-03-22T15:50:03.909Z,14.40
2019-03-22T15:58:09.433Z,17.10
2019-03-22T16:01:19.509Z,15.13
2019-03-22T16:13:04.165Z,9.40
2019-03-22T16:15:42.059Z,9.07
2019-03-22T16:18:35.397Z,13.50
2019-03-22T16:20:59.958Z,11.10
2019-03-22T16:23:34.533Z,16.63
2019-03-22T16:26:03.857Z,9.43
2019-03-22T16:28:38.426Z,17.67
2019-03-22T16:31:08.859Z,19.03
2019-03-22T16:33:43.161Z,12.87
2019-03-22T16:36:35.400Z,12.93
2019-03-22T16:42:06.117Z,22.20
2019-03-22T16:44:47.961Z,22.57
2019-03-22T16:50:40.033Z,18.10
2019-03-22T17:52:24.583Z,22.83
2019-03-22T18:01:12.689Z,14.20
2019-03-22T18:07:42.621Z,21.80
2019-03-22T18:19:37.325Z,21.50
2019-03-22T18:31:30.275Z,32.40
2019-03-22T18:33:58.226Z,30.40
2019-03-22T18:36:26.275Z,40.57
2019-03-22T18:38:54.373Z,38.13
2019-03-22T18:41:22.257Z,53.50
2019-03-22T18:43:55.872Z,54.67
2019-03-22T20:40:14.478Z,20.50
2019-03-22T20:42:41.708Z,25.07
2019-03-22T20:45:09.019Z,26.23
2019-03-22T20:47:36.266Z,26.13
2019-03-22T20:50:04.968Z,30.20
2019-03-22T20:52:32.199Z,24.57
2019-03-22T20:54:59.426Z,23.90
2019-03-22T20:57:26.662Z,23.37
2019-03-22T20:59:53.875Z,19.93
2019-03-22T21:02:21.111Z,24.63
2019-03-22T21:04:48.356Z,26.10
2019-03-22T21:07:15.646Z,25.02
2019-03-22T21:09:43.907Z,25.57
2019-03-22T21:12:11.307Z,20.72
2019-03-22T21:14:38.658Z,49.60
2019-03-22T21:17:06.009Z,25.23
2019-03-22T21:19:33.331Z,27.25
2019-03-22T21:22:00.584Z,26.33
2019-03-22T21:24:27.843Z,24.60
2019-03-22T21:26:55.083Z,23.05
2019-03-22T21:29:22.392Z,37.42
2019-03-22T21:31:49.639Z,26.80
2019-03-22T21:34:16.871Z,29.57
2019-03-22T21:36:44.115Z,38.28
2019-03-22T21:39:11.343Z,21.10
2019-03-22T21:41:38.578Z,30.02
2019-03-22T21:44:05.808Z,27.10
2019-03-22T21:46:33.089Z,26.27
2019-03-22T21:49:00.324Z,28.45
2019-03-22T21:51:27.819Z,26.30
2019-03-22T21:53:55.049Z,43.30
2019-03-22T21:56:22.281Z,23.05
2019-03-22T21:58:49.515Z,30.43
2019-03-22T22:01:16.823Z,25.85
2019-03-22T22:03:44.058Z,42.55
2019-03-22T22:06:11.288Z,34.65
2019-03-22T22:08:38.582Z,28.50
2019-03-22T22:11:05.812Z,30.40
2019-03-22T22:13:33.048Z,31.30
2019-03-22T22:16:00.275Z,29.70
2019-03-22T22:18:27.519Z,30.70
2019-03-22T22:20:54.760Z,24.77
2019-03-22T22:23:22.025Z,25.15
2019-03-22T22:25:49.295Z,24.87
2019-03-22T22:28:16.527Z,34.38
2019-03-22T22:30:43.755Z,33.80
2019-03-22T22:33:10.982Z,32.93
2019-03-22T22:35:38.210Z,39.15
2019-03-22T22:38:05.442Z,24.37
2019-03-22T22:40:32.690Z,34.73
2019-03-22T22:42:59.920Z,33.83
2019-03-22T22:45:27.171Z,29.37
2019-03-22T22:47:54.418Z,25.95
2019-03-22T22:50:21.648Z,27.05
2019-03-22T22:52:48.911Z,25.60
2019-03-22T22:55:16.142Z,27.85
2019-03-22T22:57:43.363Z,27.15
2019-03-22T23:00:11.536Z,28.42
2019-03-22T23:02:38.816Z,29.20
2019-03-22T23:05:06.330Z,31.85
2019-03-22T23:07:33.593Z,37.90
2019-03-22T23:10:00.855Z,31.60
2019-03-22T23:12:28.076Z,27.60
2019-03-22T23:14:55.352Z,32.05
2019-03-22T23:17:25.560Z,28.23
2019-03-22T23:19:52.822Z,40.08
2019-03-22T23:22:20.088Z,28.50
2019-03-22T23:24:47.332Z,31.27
2019-03-22T23:27:14.607Z,29.67
2019-03-22T23:29:41.945Z,33.67
2019-03-22T23:32:09.419Z,32.83
2019-03-22T23:34:39.947Z,28.42
2019-03-22T23:37:07.356Z,34.40
2019-03-22T23:39:34.608Z,42.67
2019-03-22T23:42:01.847Z,31.12
2019-03-22T23:44:30.489Z,29.42
2019-03-22T23:46:57.773Z,32.17
2019-03-22T23:49:25.132Z,30.92
2019-03-22T23:51:52.337Z,27.37
2019-03-22T23:54:19.619Z,36.68
2019-03-22T23:56:46.867Z,33.35
2019-03-22T23:59:14.129Z,28.75
